Time;durP1;ratioP1;P1;durP2;ratioP2;P2;SDS_P1;SDS_P2;PMS_P1;PMS_P2;Temp;Humidity;BMP_temperature;BMP_pressure;BME280_temperature;BME280_humidity;BME280_pressure;Samples;Min_cycle;Max_cycle;Signal;HPM_P1;HPM_P2
2021/03/20 00:01:09;;;;;;;18.73;10.83;;;;;;;;;;4975935;28;20197;-89
2021/03/20 00:03:34;;;;;;;14.10;9.80;;;;;;;;;;4975390;28;20205;-89
2021/03/20 00:06:00;;;;;;;13.53;10.47;;;;;;;;;;4975527;28;20616;-89
2021/03/20 00:08:26;;;;;;;12.30;9.93;;;;;;;;;;4975536;28;20174;-89
2021/03/20 00:10:53;;;;;;;16.30;10.87;;;;;;;;;;4975266;28;20640;-89
2021/03/20 00:13:19;;;;;;;22.50;13.03;;;;;;;;;;4975144;28;20693;-89
2021/03/20 00:15:44;;;;;;;18.17;11.47;;;;;;;;;;4975197;28;20257;-89
2021/03/20 00:18:10;;;;;;;14.63;9.47;;;;;;;;;;4957832;28;20209;-89
2021/03/20 00:20:38;;;;;;;16.97;11.53;;;;;;;;;;4975150;28;20676;-89
2021/03/20 00:23:04;;;;;;;16.33;10.93;;;;;;;;;;4975037;28;20178;-89
2021/03/20 00:25:29;;;;;;;15.93;10.50;;;;;;;;;;4974764;28;20185;-89
2021/03/20 00:27:55;;;;;;;14.57;10.10;;;;;;;;;;4975059;28;20625;-89
2021/03/20 00:30:21;;;;;;;15.83;11.13;;;;;;;;;;4974739;28;20228;-89
2021/03/20 00:32:46;;;;;;;15.43;10.20;;;;;;;;;;4957602;28;20217;-89
2021/03/20 00:35:12;;;;;;;13.20;9.97;;;;;;;;;;4975263;28;20170;-90
2021/03/20 00:37:38;;;;;;;14.83;10.63;;;;;;;;;;4975393;28;20636;-88
2021/03/20 00:40:05;;;;;;;13.43;10.40;;;;;;;;;;4974906;28;20170;-89
2021/03/20 00:42:31;;;;;;;12.50;9.30;;;;;;;;;;4973944;28;20206;-89
2021/03/20 00:44:56;;;;;;;14.57;10.70;;;;;;;;;;4975210;28;20241;-89
2021/03/20 00:47:21;;;;;;;13.53;10.17;;;;;;;;;;4974870;28;20230;-89
2021/03/20 00:49:47;;;;;;;15.00;10.43;;;;;;;;;;4974876;28;20189;-89
2021/03/20 00:52:12;;;;;;;15.50;9.60;;;;;;;;;;4974636;28;20253;-89
2021/03/20 00:54:38;;;;;;;14.97;10.10;;;;;;;;;;4975304;28;20262;-89
2021/03/20 00:57:03;;;;;;;16.90;10.77;;;;;;;;;;4974789;28;20201;-90
2021/03/20 00:59:28;;;;;;;12.90;9.70;;;;;;;;;;4957342;28;20269;-90
2021/03/20 01:01:54;;;;;;;13.67;9.47;;;;;;;;;;4974716;28;20221;-91
2021/03/20 01:04:19;;;;;;;14.10;10.30;;;;;;;;;;4974900;28;20171;-91
2021/03/20 01:06:44;;;;;;;15.47;10.97;;;;;;;;;;4957588;28;20622;-90
2021/03/20 01:09:10;;;;;;;14.40;10.80;;;;;;;;;;4974725;28;20171;-90
2021/03/20 01:11:35;;;;;;;20.60;13.97;;;;;;;;;;4957001;28;20186;-90
2021/03/20 01:14:01;;;;;;;13.43;10.23;;;;;;;;;;4957185;28;20206;-90
2021/03/20 01:16:27;;;;;;;16.40;11.73;;;;;;;;;;4974549;28;20218;-90
2021/03/20 01:18:52;;;;;;;14.27;10.53;;;;;;;;;;4957730;28;20236;-91
2021/03/20 01:21:18;;;;;;;12.90;10.37;;;;;;;;;;4974544;28;20711;-91
2021/03/20 01:23:43;;;;;;;13.50;9.53;;;;;;;;;;4957682;28;20281;-89
2021/03/20 01:26:09;;;;;;;14.27;10.63;;;;;;;;;;4974247;28;20642;-89
2021/03/20 01:28:35;;;;;;;11.23;9.27;;;;;;;;;;4974415;28;20203;-90
2021/03/20 01:31:01;;;;;;;13.17;9.73;;;;;;;;;;4974505;28;20171;-89
2021/03/20 01:33:26;;;;;;;13.43;9.50;;;;;;;;;;4974464;28;20209;-89
2021/03/20 01:35:52;;;;;;;12.40;9.97;;;;;;;;;;4974983;28;20206;-89
2021/03/20 01:38:17;;;;;;;13.57;10.30;;;;;;;;;;4974419;28;20672;-89
2021/03/20 01:40:45;;;;;;;14.60;10.00;;;;;;;;;;4974193;28;20175;-90
2021/03/20 01:43:14;;;;;;;16.10;11.03;;;;;;;;;;4974184;28;20189;-90
2021/03/20 01:45:40;;;;;;;14.57;9.73;;;;;;;;;;4974416;28;20175;-88
2021/03/20 01:48:09;;;;;;;15.20;10.40;;;;;;;;;;4974436;28;20231;-88
2021/03/20 01:50:40;;;;;;;16.03;9.83;;;;;;;;;;4974369;28;20186;-88
2021/03/20 01:53:32;;;;;;;12.60;9.47;;;;;;;;;;4974232;28;20659;-88
2021/03/20 01:55:58;;;;;;;13.53;9.30;;;;;;;;;;4954832;28;20194;-88
2021/03/20 01:58:23;;;;;;;14.67;9.27;;;;;;;;;;4977517;28;20178;-88
2021/03/20 02:00:50;;;;;;;13.57;9.77;;;;;;;;;;4977739;28;20174;-88
2021/03/20 02:03:18;;;;;;;15.07;10.47;;;;;;;;;;4960208;28;20542;-88
2021/03/20 02:05:43;;;;;;;15.53;10.23;;;;;;;;;;4977263;28;20178;-88
2021/03/20 02:08:11;;;;;;;12.57;9.20;;;;;;;;;;4977230;28;20182;-89
2021/03/20 02:10:38;;;;;;;12.53;8.73;;;;;;;;;;4977376;28;20262;-89
2021/03/20 02:13:09;;;;;;;13.17;8.37;;;;;;;;;;4977533;28;20241;-89
2021/03/20 02:15:43;;;;;;;12.97;8.77;;;;;;;;;;4977665;28;20189;-88
2021/03/20 02:18:28;;;;;;;12.53;8.73;;;;;;;;;;4977329;28;20598;-89
2021/03/20 02:21:12;;;;;;;13.33;8.20;;;;;;;;;;4977554;28;20174;-89
2021/03/20 02:23:55;;;;;;;12.27;7.87;;;;;;;;;;4977484;28;20225;-88
2021/03/20 02:26:44;;;;;;;11.37;7.97;;;;;;;;;;4977264;28;20166;-89
2021/03/20 02:29:28;;;;;;;9.80;7.40;;;;;;;;;;4968941;28;20638;-89
2021/03/20 02:32:16;;;;;;;12.17;8.13;;;;;;;;;;4977062;28;20202;-89
2021/03/20 02:34:45;;;;;;;13.20;8.87;;;;;;;;;;4955277;28;20206;-89
2021/03/20 02:37:13;;;;;;;14.03;9.27;;;;;;;;;;4977748;28;20170;-89
2021/03/20 02:39:41;;;;;;;12.53;8.80;;;;;;;;;;4976997;28;20167;-89
2021/03/20 02:42:14;;;;;;;12.90;8.63;;;;;;;;;;4976785;28;20181;-89
2021/03/20 02:44:55;;;;;;;11.33;8.60;;;;;;;;;;4977156;28;20169;-89
2021/03/20 02:47:33;;;;;;;12.40;8.70;;;;;;;;;;4959573;28;20265;-89
2021/03/20 02:50:06;;;;;;;10.73;8.20;;;;;;;;;;4977309;28;20166;-89
2021/03/20 02:52:40;;;;;;;12.50;8.27;;;;;;;;;;4958964;28;20198;-89
2021/03/20 02:55:11;;;;;;;11.23;7.87;;;;;;;;;;4976757;28;20524;-89
2021/03/20 02:57:40;;;;;;;14.60;8.97;;;;;;;;;;4976266;28;20206;-89
2021/03/20 03:00:08;;;;;;;12.53;7.90;;;;;;;;;;4976493;28;20179;-90
2021/03/20 03:02:34;;;;;;;11.30;7.90;;;;;;;;;;4977027;28;20521;-88
2021/03/20 03:05:01;;;;;;;12.47;7.80;;;;;;;;;;4976172;28;20174;-88
2021/03/20 03:07:35;;;;;;;9.77;7.50;;;;;;;;;;4975911;28;20175;-87
2021/03/20 03:10:14;;;;;;;10.73;8.23;;;;;;;;;;4976301;28;20175;-88
2021/03/20 03:12:48;;;;;;;9.30;7.03;;;;;;;;;;4958952;28;20202;-88
2021/03/20 03:15:16;;;;;;;10.57;7.63;;;;;;;;;;4976268;28;20189;-88
2021/03/20 03:17:45;;;;;;;11.93;7.70;;;;;;;;;;4976724;28;20637;-88
2021/03/20 03:20:10;;;;;;;13.40;8.70;;;;;;;;;;4958860;28;20187;-87
2021/03/20 03:22:39;;;;;;;11.30;7.77;;;;;;;;;;4976357;28;20540;-89
2021/03/20 03:25:07;;;;;;;11.63;7.80;;;;;;;;;;4976388;28;20240;-89
2021/03/20 03:27:34;;;;;;;9.07;6.73;;;;;;;;;;4959270;28;20628;-88
2021/03/20 03:29:59;;;;;;;10.10;6.77;;;;;;;;;;4975832;28;20175;-89
2021/03/20 03:32:33;;;;;;;9.90;7.20;;;;;;;;;;4976541;28;20205;-88
2021/03/20 03:35:13;;;;;;;9.80;6.53;;;;;;;;;;4976281;28;20173;-87
2021/03/20 03:37:59;;;;;;;9.80;6.77;;;;;;;;;;4975599;28;20530;-89
2021/03/20 03:40:27;;;;;;;9.80;6.90;;;;;;;;;;4975868;28;20601;-89
2021/03/20 03:42:52;;;;;;;9.13;7.07;;;;;;;;;;4976075;28;20679;-89
2021/03/20 03:45:19;;;;;;;11.33;6.97;;;;;;;;;;4975687;28;20209;-88
2021/03/20 03:47:45;;;;;;;10.47;7.23;;;;;;;;;;4975186;28;20229;-89
2021/03/20 03:50:12;;;;;;;11.17;7.33;;;;;;;;;;4975932;28;20270;-89
2021/03/20 03:52:38;;;;;;;9.03;7.07;;;;;;;;;;4958268;28;20238;-88
2021/03/20 03:55:04;;;;;;;9.73;6.90;;;;;;;;;;4975242;28;20209;-88
2021/03/20 03:57:33;;;;;;;12.70;6.87;;;;;;;;;;4975422;28;20613;-88
2021/03/20 04:00:01;;;;;;;10.27;7.33;;;;;;;;;;4975255;28;20766;-88
2021/03/20 04:02:35;;;;;;;10.43;7.17;;;;;;;;;;4975985;28;20233;-88
2021/03/20 04:05:23;;;;;;;9.53;6.60;;;;;;;;;;4975321;28;20601;-88
2021/03/20 04:07:57;;;;;;;9.43;6.87;;;;;;;;;;4975377;28;20162;-88
2021/03/20 04:10:23;;;;;;;9.97;6.83;;;;;;;;;;4958052;28;20273;-88
2021/03/20 04:12:48;;;;;;;13.50;8.27;;;;;;;;;;4974925;28;20298;-88
2021/03/20 04:15:22;;;;;;;10.17;7.17;;;;;;;;;;4958724;28;20234;-88
2021/03/20 04:18:03;;;;;;;13.17;8.67;;;;;;;;;;4975124;28;20256;-88
2021/03/20 04:20:43;;;;;;;9.83;6.53;;;;;;;;;;4975223;28;20177;-87
2021/03/20 04:23:15;;;;;;;9.20;6.70;;;;;;;;;;4975377;28;20270;-87
2021/03/20 04:25:46;;;;;;;9.07;7.20;;;;;;;;;;4975498;28;20159;-87
2021/03/20 04:28:14;;;;;;;10.60;7.37;;;;;;;;;;4975739;28;20190;-87
2021/03/20 04:30:40;;;;;;;9.80;7.50;;;;;;;;;;4975292;28;20253;-87
2021/03/20 04:33:06;;;;;;;10.60;7.30;;;;;;;;;;4974963;28;20213;-87
2021/03/20 04:35:34;;;;;;;12.87;9.27;;;;;;;;;;4975241;28;20175;-87
2021/03/20 04:38:01;;;;;;;31.00;18.87;;;;;;;;;;4974942;28;20167;-87
2021/03/20 04:40:42;;;;;;;29.87;15.53;;;;;;;;;;4975496;28;20305;-87
2021/03/20 04:43:09;;;;;;;22.97;14.37;;;;;;;;;;4975327;28;20181;-87
2021/03/20 04:45:38;;;;;;;20.03;12.47;;;;;;;;;;4974937;28;20349;-87
2021/03/20 04:48:11;;;;;;;23.00;12.07;;;;;;;;;;4974516;28;20266;-87
2021/03/20 04:50:37;;;;;;;39.17;22.27;;;;;;;;;;4975125;28;20169;-87
2021/03/20 04:53:02;;;;;;;26.90;16.87;;;;;;;;;;4974743;28;20285;-87
2021/03/20 04:55:29;;;;;;;26.33;14.50;;;;;;;;;;4975341;28;20630;-87
2021/03/20 04:58:00;;;;;;;21.03;12.20;;;;;;;;;;4975043;28;20211;-87
2021/03/20 05:00:25;;;;;;;16.27;12.03;;;;;;;;;;4975013;28;20660;-87
2021/03/20 05:02:54;;;;;;;19.73;12.93;;;;;;;;;;4974472;28;20174;-87
2021/03/20 05:05:25;;;;;;;16.70;11.37;;;;;;;;;;4975206;28;20171;-87
2021/03/20 05:07:52;;;;;;;19.30;12.40;;;;;;;;;;4974841;28;20682;-87
2021/03/20 05:10:38;;;;;;;14.07;10.47;;;;;;;;;;4974956;28;20200;-87
2021/03/20 05:13:04;;;;;;;36.13;19.13;;;;;;;;;;4934719;28;20218;-88
2021/03/20 05:15:31;;;;;;;26.30;13.30;;;;;;;;;;4974318;28;20254;-89
2021/03/20 05:17:56;;;;;;;25.23;13.13;;;;;;;;;;4974815;28;20178;-89
2021/03/20 05:20:22;;;;;;;26.27;15.27;;;;;;;;;;4974550;28;20523;-89
2021/03/20 05:22:47;;;;;;;17.33;10.13;;;;;;;;;;4975418;28;20174;-88
2021/03/20 05:25:14;;;;;;;18.43;9.53;;;;;;;;;;4974291;28;20663;-88
2021/03/20 05:27:40;;;;;;;21.63;11.77;;;;;;;;;;4974843;28;20530;-87
2021/03/20 05:30:06;;;;;;;21.60;11.30;;;;;;;;;;4977290;28;20171;-88
2021/03/20 05:32:32;;;;;;;15.33;9.67;;;;;;;;;;4978104;28;20228;-88
2021/03/20 05:34:59;;;;;;;18.80;10.93;;;;;;;;;;4977881;28;20622;-88
2021/03/20 05:37:26;;;;;;;20.37;12.17;;;;;;;;;;4978113;28;20206;-88
2021/03/20 05:39:52;;;;;;;21.93;12.20;;;;;;;;;;4978312;28;20617;-88
2021/03/20 05:42:40;;;;;;;16.93;10.90;;;;;;;;;;4978607;28;20260;-88
2021/03/20 05:45:11;;;;;;;20.17;10.57;;;;;;;;;;4967119;28;20189;-88
2021/03/20 05:47:51;;;;;;;15.63;9.83;;;;;;;;;;4978218;28;20241;-89
2021/03/20 05:50:36;;;;;;;13.53;9.00;;;;;;;;;;4960525;28;20189;-89
2021/03/20 05:53:02;;;;;;;15.43;8.80;;;;;;;;;;4977709;28;20229;-89
2021/03/20 05:55:37;;;;;;;13.60;8.00;;;;;;;;;;4960918;28;20183;-88
2021/03/20 05:58:11;;;;;;;11.77;7.57;;;;;;;;;;4978658;28;20177;-89
2021/03/20 06:00:40;;;;;;;12.33;6.27;;;;;;;;;;4978190;28;20665;-89
2021/03/20 06:03:17;;;;;;;13.33;7.70;;;;;;;;;;4977610;28;20178;-89
2021/03/20 06:05:42;;;;;;;11.00;7.77;;;;;;;;;;4977527;28;20501;-89
2021/03/20 06:08:26;;;;;;;13.93;7.77;;;;;;;;;;4977574;28;20269;-90
2021/03/20 06:10:51;;;;;;;12.00;7.27;;;;;;;;;;4960098;28;20177;-88
2021/03/20 06:13:19;;;;;;;13.60;8.03;;;;;;;;;;4978049;28;20207;-88
2021/03/20 06:15:48;;;;;;;12.43;7.80;;;;;;;;;;4977623;28;20262;-89
2021/03/20 06:18:22;;;;;;;19.53;11.73;;;;;;;;;;4977658;28;20183;-89
2021/03/20 06:20:50;;;;;;;17.60;9.80;;;;;;;;;;4977077;28;20265;-89
2021/03/20 06:23:28;;;;;;;19.60;10.43;;;;;;;;;;4960610;28;20209;-89
2021/03/20 06:26:01;;;;;;;14.13;9.00;;;;;;;;;;4977206;28;20198;-88
2021/03/20 06:28:29;;;;;;;15.63;8.90;;;;;;;;;;4977439;28;20525;-89
2021/03/20 06:30:57;;;;;;;18.03;10.87;;;;;;;;;;4977078;28;20174;-88
2021/03/20 06:33:28;;;;;;;14.27;8.73;;;;;;;;;;4977204;28;20257;-89
2021/03/20 06:36:02;;;;;;;15.10;9.30;;;;;;;;;;4977020;28;20175;-89
2021/03/20 06:38:34;;;;;;;15.90;9.03;;;;;;;;;;4977244;28;20177;-90
2021/03/20 06:41:06;;;;;;;16.63;10.10;;;;;;;;;;4975998;28;20177;-89
2021/03/20 06:43:32;;;;;;;16.30;10.30;;;;;;;;;;4977308;28;20170;-90
2021/03/20 06:45:57;;;;;;;14.80;9.43;;;;;;;;;;4976890;28;20182;-90
2021/03/20 06:48:27;;;;;;;24.13;11.67;;;;;;;;;;4976754;28;20284;-89
2021/03/20 06:50:55;;;;;;;14.90;9.70;;;;;;;;;;4977694;28;20186;-90
2021/03/20 06:53:25;;;;;;;11.87;8.70;;;;;;;;;;4976623;28;20234;-90
2021/03/20 06:55:50;;;;;;;21.13;11.80;;;;;;;;;;4976972;28;20176;-89
2021/03/20 06:58:19;;;;;;;18.43;10.30;;;;;;;;;;4976737;28;20282;-90
2021/03/20 07:00:44;;;;;;;17.43;10.50;;;;;;;;;;4976602;28;20182;-90
2021/03/20 07:03:13;;;;;;;15.37;10.20;;;;;;;;;;4976570;28;20174;-89
2021/03/20 07:05:47;;;;;;;13.37;8.00;;;;;;;;;;4976527;28;20178;-89
2021/03/20 07:08:45;;;;;;;11.43;7.67;;;;;;;;;;4959640;28;20498;-90
2021/03/20 07:11:36;;;;;;;14.87;9.13;;;;;;;;;;4927022;28;20281;-89
2021/03/20 07:14:09;;;;;;;12.90;9.10;;;;;;;;;;4973162;28;20225;-89
2021/03/20 07:16:53;;;;;;;12.10;8.27;;;;;;;;;;4959729;28;20533;-89
2021/03/20 07:19:19;;;;;;;13.73;8.90;;;;;;;;;;4959368;28;20213;-89
2021/03/20 07:21:45;;;;;;;14.77;9.30;;;;;;;;;;4958785;28;20210;-90
2021/03/20 07:24:15;;;;;;;15.23;9.60;;;;;;;;;;4976399;28;20182;-89
2021/03/20 07:27:07;;;;;;;16.67;9.10;;;;;;;;;;4976289;28;20170;-90
2021/03/20 07:29:38;;;;;;;12.90;8.63;;;;;;;;;;4952956;28;20190;-90
2021/03/20 07:32:03;;;;;;;14.70;9.00;;;;;;;;;;4976537;28;20174;-90
2021/03/20 07:34:30;;;;;;;10.43;8.07;;;;;;;;;;4975766;28;20212;-90
2021/03/20 07:37:04;;;;;;;14.40;9.73;;;;;;;;;;4976275;28;20178;-90
2021/03/20 07:39:41;;;;;;;16.17;9.40;;;;;;;;;;4975730;28;20645;-90
2021/03/20 07:42:06;;;;;;;15.30;9.47;;;;;;;;;;4959243;28;20537;-90
2021/03/20 07:44:54;;;;;;;18.50;10.37;;;;;;;;;;4958772;28;20174;-91
2021/03/20 07:47:20;;;;;;;13.97;9.73;;;;;;;;;;4920268;28;20239;-91
2021/03/20 07:49:46;;;;;;;11.83;9.13;;;;;;;;;;4959054;28;20630;-91
2021/03/20 07:52:24;;;;;;;14.83;9.47;;;;;;;;;;4958259;28;20183;-90
2021/03/20 07:55:01;;;;;;;13.80;9.80;;;;;;;;;;4975520;28;20197;-90
2021/03/20 07:57:26;;;;;;;15.30;9.93;;;;;;;;;;4975684;28;20252;-90
2021/03/20 07:59:52;;;;;;;14.73;10.40;;;;;;;;;;4958242;28;20218;-90
2021/03/20 08:02:27;;;;;;;16.10;11.20;;;;;;;;;;4975862;28;20175;-90
2021/03/20 08:04:54;;;;;;;34.17;20.67;;;;;;;;;;4958093;28;20178;-90
2021/03/20 08:07:27;;;;;;;29.30;18.43;;;;;;;;;;4975881;28;20177;-90
2021/03/20 08:10:04;;;;;;;32.33;17.53;;;;;;;;;;4975733;28;20189;-90
2021/03/20 08:12:30;;;;;;;39.13;20.17;;;;;;;;;;4958052;28;20202;-90
2021/03/20 08:14:59;;;;;;;84.13;31.93;;;;;;;;;;4975652;28;20249;-91
2021/03/20 08:17:25;;;;;;;28.73;15.37;;;;;;;;;;4975348;28;20175;-90
2021/03/20 08:19:50;;;;;;;71.67;43.00;;;;;;;;;;4975227;28;20292;-90
2021/03/20 08:22:29;;;;;;;114.33;48.97;;;;;;;;;;4975756;28;20175;-89
2021/03/20 08:25:04;;;;;;;26.33;15.17;;;;;;;;;;4975281;28;20525;-91
2021/03/20 08:27:43;;;;;;;45.17;25.53;;;;;;;;;;4957857;28;20174;-90
2021/03/20 08:30:30;;;;;;;54.40;36.83;;;;;;;;;;4957103;28;20656;-88
2021/03/20 08:33:14;;;;;;;39.23;21.40;;;;;;;;;;4974952;28;20202;-88
2021/03/20 08:35:48;;;;;;;25.27;15.97;;;;;;;;;;4975188;28;20177;-89
2021/03/20 08:38:28;;;;;;;21.57;12.83;;;;;;;;;;4958079;28;20193;-91
2021/03/20 08:40:57;;;;;;;27.63;15.60;;;;;;;;;;4957592;28;20193;-91
2021/03/20 08:43:42;;;;;;;26.90;13.97;;;;;;;;;;4957732;28;20190;-90
2021/03/20 08:46:11;;;;;;;25.70;15.30;;;;;;;;;;4956433;28;20508;-89
2021/03/20 08:48:51;;;;;;;27.70;14.40;;;;;;;;;;4975231;28;20163;-89
2021/03/20 08:51:17;;;;;;;26.80;15.43;;;;;;;;;;4958466;28;20264;-88
2021/03/20 08:53:57;;;;;;;22.07;11.43;;;;;;;;;;4972376;28;20309;-89
2021/03/20 08:56:25;;;;;;;19.03;11.80;;;;;;;;;;4957840;28;20261;-89
2021/03/20 08:59:25;;;;;;;21.53;13.37;;;;;;;;;;4974419;28;20171;-89
2021/03/20 09:02:11;;;;;;;21.10;13.27;;;;;;;;;;4896177;29;20185;-89
2021/03/20 09:04:37;;;;;;;22.87;14.07;;;;;;;;;;4943359;28;20324;-89
2021/03/20 09:07:08;;;;;;;38.30;19.77;;;;;;;;;;4960956;28;20225;-92
2021/03/20 09:09:36;;;;;;;39.33;17.77;;;;;;;;;;4960444;28;20719;-90
2021/03/20 09:12:12;;;;;;;34.47;14.90;;;;;;;;;;4978400;28;20257;-90
2021/03/20 09:14:42;;;;;;;44.33;19.43;;;;;;;;;;4978901;28;20198;-90
2021/03/20 09:17:13;;;;;;;34.13;16.73;;;;;;;;;;4961148;28;20540;-91
2021/03/20 09:19:47;;;;;;;24.20;13.70;;;;;;;;;;4960447;28;20186;-92
2021/03/20 09:22:14;;;;;;;38.80;17.77;;;;;;;;;;4977934;28;20171;-91
2021/03/20 09:24:48;;;;;;;20.33;13.13;;;;;;;;;;4961095;28;20182;-91
2021/03/20 09:27:13;;;;;;;16.00;11.17;;;;;;;;;;4961466;28;20178;-92
2021/03/20 09:29:59;;;;;;;38.07;17.53;;;;;;;;;;4959230;28;20244;-91
2021/03/20 09:32:25;;;;;;;20.63;11.97;;;;;;;;;;4958525;28;20179;-91
2021/03/20 09:34:53;;;;;;;20.37;11.50;;;;;;;;;;4960862;28;20174;-92
2021/03/20 09:37:19;;;;;;;26.47;15.27;;;;;;;;;;4979356;28;20175;-91
2021/03/20 09:39:44;;;;;;;40.87;28.23;;;;;;;;;;4960825;28;20175;-91
2021/03/20 09:42:27;;;;;;;28.10;14.67;;;;;;;;;;4960604;28;20197;-91
2021/03/20 09:45:23;;;;;;;16.17;8.90;;;;;;;;;;4960459;28;20182;-91
2021/03/20 09:47:55;;;;;;;14.10;8.67;;;;;;;;;;4977269;28;20258;-91
2021/03/20 09:50:20;;;;;;;23.80;12.50;;;;;;;;;;4959857;28;20187;-92
2021/03/20 09:52:48;;;;;;;15.13;8.93;;;;;;;;;;4964067;28;20266;-92
2021/03/20 09:55:26;;;;;;;17.50;10.90;;;;;;;;;;4940769;29;20187;-89
2021/03/20 09:57:53;;;;;;;17.70;10.33;;;;;;;;;;4940546;29;20186;-90
2021/03/20 10:00:37;;;;;;;17.70;10.97;;;;;;;;;;4940340;29;20193;-91
2021/03/20 10:03:03;;;;;;;14.87;8.77;;;;;;;;;;4957642;28;20178;-91
2021/03/20 10:05:30;;;;;;;21.80;12.40;;;;;;;;;;4939674;29;20195;-90
2021/03/20 10:07:56;;;;;;;20.47;12.00;;;;;;;;;;4957611;28;20226;-91
2021/03/20 10:10:23;;;;;;;13.20;10.20;;;;;;;;;;4940066;29;20175;-90
2021/03/20 10:12:48;;;;;;;15.43;8.50;;;;;;;;;;4939915;29;20215;-92
2021/03/20 10:15:29;;;;;;;21.03;10.47;;;;;;;;;;4956851;28;20245;-93
2021/03/20 10:18:03;;;;;;;18.07;9.23;;;;;;;;;;4959527;28;20182;-93
2021/03/20 10:20:42;;;;;;;12.77;7.90;;;;;;;;;;4977972;28;20182;-93
2021/03/20 10:23:26;;;;;;;18.40;10.80;;;;;;;;;;4960697;28;20182;-92
2021/03/20 10:25:53;;;;;;;26.80;15.10;;;;;;;;;;4960146;28;20265;-93
2021/03/20 10:28:28;;;;;;;16.53;10.43;;;;;;;;;;4959753;28;20179;-92
2021/03/20 10:31:13;;;;;;;35.03;13.93;;;;;;;;;;4978045;28;20162;-92
2021/03/20 10:33:40;;;;;;;18.57;11.57;;;;;;;;;;4956826;28;20273;-88
2021/03/20 10:36:06;;;;;;;24.13;16.10;;;;;;;;;;4977328;28;20688;-91
2021/03/20 10:38:32;;;;;;;30.50;13.40;;;;;;;;;;4977440;28;20175;-89
2021/03/20 10:40:59;;;;;;;19.37;10.17;;;;;;;;;;4982703;28;20502;-91
2021/03/20 10:43:24;;;;;;;12.57;7.63;;;;;;;;;;4978959;28;20193;-92
2021/03/20 10:45:50;;;;;;;12.87;8.23;;;;;;;;;;4978762;28;20174;-93
2021/03/20 10:48:22;;;;;;;21.90;13.03;;;;;;;;;;4959918;28;20262;-88
2021/03/20 10:50:48;;;;;;;11.83;7.40;;;;;;;;;;4956746;28;20186;-90
2021/03/20 10:53:21;;;;;;;13.37;8.37;;;;;;;;;;4974751;28;20693;-88
2021/03/20 10:55:48;;;;;;;15.23;7.90;;;;;;;;;;4976519;28;20182;-90
2021/03/20 10:58:15;;;;;;;12.33;9.20;;;;;;;;;;4958919;28;20644;-90
2021/03/20 11:00:43;;;;;;;14.70;9.37;;;;;;;;;;4953748;28;20176;-89
2021/03/20 11:03:11;;;;;;;14.53;9.57;;;;;;;;;;4963107;28;20553;-91
2021/03/20 11:05:37;;;;;;;14.77;9.83;;;;;;;;;;4939782;29;20183;-89
2021/03/20 11:08:14;;;;;;;15.60;11.37;;;;;;;;;;4957367;28;20178;-90
2021/03/20 11:10:44;;;;;;;11.93;9.90;;;;;;;;;;4957103;29;20183;-90
2021/03/20 11:13:22;;;;;;;12.57;8.40;;;;;;;;;;4963651;28;20209;-90
2021/03/20 11:15:49;;;;;;;19.23;11.97;;;;;;;;;;4956917;28;20625;-90
2021/03/20 11:18:16;;;;;;;15.87;9.97;;;;;;;;;;4975407;28;20632;-89
2021/03/20 11:20:43;;;;;;;26.17;14.47;;;;;;;;;;4974282;28;20186;-88
2021/03/20 11:23:19;;;;;;;22.30;14.17;;;;;;;;;;4972985;28;20179;-89
2021/03/20 11:25:44;;;;;;;17.10;10.37;;;;;;;;;;4958848;28;20604;-89
2021/03/20 11:28:13;;;;;;;11.47;8.20;;;;;;;;;;4958150;28;20269;-89
2021/03/20 11:30:42;;;;;;;11.60;8.23;;;;;;;;;;4975705;28;20602;-89
2021/03/20 11:33:10;;;;;;;16.00;9.63;;;;;;;;;;4975306;28;20551;-90
2021/03/20 11:35:39;;;;;;;11.50;8.13;;;;;;;;;;4976197;28;20205;-89
2021/03/20 11:38:06;;;;;;;13.67;10.10;;;;;;;;;;4958663;28;20190;-88
2021/03/20 11:40:32;;;;;;;14.23;9.50;;;;;;;;;;4976097;28;20194;-89
2021/03/20 11:43:03;;;;;;;15.47;9.80;;;;;;;;;;4958429;28;20222;-90
2021/03/20 11:45:28;;;;;;;14.53;9.57;;;;;;;;;;4959038;28;20183;-89
2021/03/20 11:47:54;;;;;;;12.77;9.87;;;;;;;;;;4974255;28;20245;-89
2021/03/20 11:50:31;;;;;;;11.10;7.80;;;;;;;;;;4975425;28;20174;-90
2021/03/20 11:53:01;;;;;;;16.63;10.43;;;;;;;;;;4975915;28;20601;-89
2021/03/20 11:55:30;;;;;;;14.80;8.67;;;;;;;;;;4975898;28;20169;-90
2021/03/20 11:58:03;;;;;;;10.77;7.90;;;;;;;;;;4975670;28;20170;-89
2021/03/20 12:00:38;;;;;;;38.40;24.10;;;;;;;;;;4958300;28;20225;-89
2021/03/20 12:03:09;;;;;;;46.27;27.47;;;;;;;;;;4958295;28;20244;-89
2021/03/20 12:05:37;;;;;;;15.00;9.03;;;;;;;;;;4975221;28;20502;-89
2021/03/20 12:08:12;;;;;;;12.03;8.20;;;;;;;;;;4975544;28;20175;-89
2021/03/20 12:10:52;;;;;;;15.10;9.13;;;;;;;;;;4973054;28;20636;-89
2021/03/20 12:13:37;;;;;;;13.33;8.83;;;;;;;;;;4957506;28;20684;-90
2021/03/20 12:16:05;;;;;;;16.20;9.70;;;;;;;;;;4957357;28;20183;-89
2021/03/20 12:18:37;;;;;;;35.80;16.97;;;;;;;;;;4975431;28;20175;-90
2021/03/20 12:21:04;;;;;;;14.93;9.83;;;;;;;;;;4975019;28;20204;-89
2021/03/20 12:23:31;;;;;;;12.27;8.20;;;;;;;;;;4975137;28;20697;-88
2021/03/20 12:25:58;;;;;;;16.23;10.40;;;;;;;;;;4975027;28;20170;-87
2021/03/20 12:28:34;;;;;;;19.90;11.93;;;;;;;;;;4975341;28;20181;-88
2021/03/20 12:31:07;;;;;;;14.10;10.23;;;;;;;;;;4973595;28;20181;-88
2021/03/20 12:33:47;;;;;;;12.70;9.43;;;;;;;;;;4970871;28;20206;-88
2021/03/20 12:36:27;;;;;;;16.37;10.50;;;;;;;;;;4969148;28;20171;-88
2021/03/20 12:38:54;;;;;;;18.80;11.03;;;;;;;;;;4958641;28;20668;-88
2021/03/20 12:41:21;;;;;;;13.70;9.63;;;;;;;;;;4969319;28;20325;-88
2021/03/20 12:44:07;;;;;;;12.23;8.20;;;;;;;;;;4965650;28;20261;-88
2021/03/20 12:46:37;;;;;;;9.57;7.63;;;;;;;;;;4969381;28;20226;-86
2021/03/20 12:49:04;;;;;;;10.40;6.50;;;;;;;;;;4968232;28;20187;-85
2021/03/20 12:51:30;;;;;;;11.23;7.33;;;;;;;;;;4969591;28;20542;-86
2021/03/20 12:53:55;;;;;;;14.73;9.37;;;;;;;;;;4972364;28;20218;-86
2021/03/20 12:56:21;;;;;;;10.80;8.23;;;;;;;;;;4972539;28;20588;-87
2021/03/20 12:58:46;;;;;;;8.97;7.40;;;;;;;;;;4974939;28;20170;-86
2021/03/20 13:01:11;;;;;;;11.60;8.33;;;;;;;;;;4974943;28;20228;-87
2021/03/20 13:03:37;;;;;;;28.43;16.77;;;;;;;;;;4974927;28;20647;-87
2021/03/20 13:06:12;;;;;;;22.53;14.17;;;;;;;;;;4969273;28;20179;-88
2021/03/20 13:08:38;;;;;;;14.07;9.80;;;;;;;;;;4974284;28;20197;-87
2021/03/20 13:11:07;;;;;;;11.67;8.67;;;;;;;;;;4974326;28;20189;-88
2021/03/20 13:13:33;;;;;;;23.03;12.40;;;;;;;;;;4974348;28;20214;-87
2021/03/20 13:15:58;;;;;;;16.03;10.57;;;;;;;;;;4972905;28;20182;-88
2021/03/20 13:18:24;;;;;;;9.57;6.80;;;;;;;;;;4974464;28;20257;-87
2021/03/20 13:20:51;;;;;;;11.70;8.27;;;;;;;;;;4974353;28;20175;-87
2021/03/20 13:23:17;;;;;;;11.77;8.43;;;;;;;;;;4974024;28;20190;-87
2021/03/20 13:25:43;;;;;;;13.73;9.10;;;;;;;;;;4974032;28;20589;-87
2021/03/20 13:28:11;;;;;;;13.30;6.77;;;;;;;;;;4974034;28;20175;-85
2021/03/20 13:30:41;;;;;;;9.83;7.70;;;;;;;;;;4973721;28;20622;-87
2021/03/20 13:33:07;;;;;;;8.67;6.47;;;;;;;;;;4974202;28;20713;-87
2021/03/20 13:35:34;;;;;;;9.93;6.53;;;;;;;;;;4974579;28;20375;-87
2021/03/20 13:38:00;;;;;;;12.87;8.30;;;;;;;;;;4972530;28;20187;-88
2021/03/20 13:40:26;;;;;;;11.57;7.03;;;;;;;;;;4973812;28;20181;-87
2021/03/20 13:42:51;;;;;;;10.00;6.83;;;;;;;;;;4974571;28;20618;-87
2021/03/20 13:45:18;;;;;;;9.50;6.77;;;;;;;;;;4971545;28;20194;-87
2021/03/20 13:47:43;;;;;;;8.93;6.47;;;;;;;;;;4956386;28;20242;-86
2021/03/20 13:50:09;;;;;;;12.27;8.80;;;;;;;;;;4974112;28;20681;-86
2021/03/20 13:52:35;;;;;;;12.73;8.70;;;;;;;;;;4976112;28;20692;-86
2021/03/20 13:55:00;;;;;;;16.80;12.37;;;;;;;;;;4977082;28;20210;-88
2021/03/20 13:57:26;;;;;;;40.73;21.97;;;;;;;;;;4971851;28;20203;-85
2021/03/20 13:59:51;;;;;;;17.57;9.50;;;;;;;;;;4958234;29;20641;-85
2021/03/20 14:02:17;;;;;;;14.33;8.97;;;;;;;;;;4971413;28;20609;-84
2021/03/20 14:04:46;;;;;;;26.87;15.03;;;;;;;;;;4977641;28;20179;-85
2021/03/20 14:07:27;;;;;;;12.67;9.53;;;;;;;;;;4973384;28;20567;-84
2021/03/20 14:09:55;;;;;;;19.17;11.70;;;;;;;;;;4966269;28;20170;-85
2021/03/20 14:12:21;;;;;;;19.40;10.37;;;;;;;;;;4955188;28;20701;-86
2021/03/20 14:14:51;;;;;;;18.80;9.90;;;;;;;;;;4974966;28;20218;-84
2021/03/20 14:17:16;;;;;;;26.93;12.90;;;;;;;;;;4977025;28;20541;-87
2021/03/20 14:19:41;;;;;;;18.80;8.77;;;;;;;;;;4975993;28;20281;-86
2021/03/20 14:22:07;;;;;;;12.80;7.53;;;;;;;;;;4977067;28;20197;-85
2021/03/20 14:24:32;;;;;;;12.30;8.27;;;;;;;;;;4977506;28;20549;-85
2021/03/20 14:26:58;;;;;;;39.57;26.60;;;;;;;;;;4977264;28;20261;-85
2021/03/20 14:29:24;;;;;;;17.10;12.33;;;;;;;;;;4976910;28;20209;-86
2021/03/20 14:31:49;;;;;;;44.17;19.30;;;;;;;;;;4977805;28;20182;-87
2021/03/20 14:34:15;;;;;;;15.57;8.50;;;;;;;;;;4977110;28;20195;-86
2021/03/20 14:36:40;;;;;;;30.67;12.70;;;;;;;;;;4977091;28;20289;-87
2021/03/20 14:39:05;;;;;;;16.20;8.77;;;;;;;;;;4977186;28;20201;-86
2021/03/20 14:41:30;;;;;;;14.60;7.97;;;;;;;;;;4976967;28;20259;-87
2021/03/20 14:43:56;;;;;;;16.73;8.30;;;;;;;;;;4976684;28;20178;-86